Flight Track Log - Related Links

Times and Time Zones

All times are in EDT time to prevent confusion due to time zone crossing. See the ASQ5107 flight status page for this flight to view local times or setup timezone preferences in your user account.

Time Position Orientation Groundspeed Altitude Reporting Facility
EDT Latitude Longitude Course Direction KTS MPH feet Rate Location/Type
Mon 07:28:08 PM 33.4108 -82.0531 259° West 239 275 3,000  Level Atlanta Center
Mon 07:29:08 PM 33.3956 -82.1478 259° West 285 328 6,200 2,467 Climbing Atlanta Center
Mon 07:31:08 PM 33.3669 -82.3325 260° West 280 322 10,400 2,467 Climbing Atlanta Center
Mon 07:32:08 PM 33.3517 -82.4397 260° West 307 353 13,600 2,750 Climbing Atlanta Center
Mon 07:33:08 PM 33.3364 -82.5419 260° West 320 368 15,900 2,050 Climbing Atlanta Center
Mon 07:34:08 PM 33.3061 -82.6319 248° West 320 368 17,700 1,700 Climbing Atlanta Center
Mon 07:35:08 PM 33.2717 -82.7344 248° West 328 377 19,300 1,150 Climbing Atlanta Center
Mon 07:36:08 PM 33.2522 -82.8589 259° West 339 390 20,000 350 Climbing Atlanta Center
Mon 07:37:08 PM 33.2489 -82.9708 268° West 339 390 20,000  Level Atlanta Center
Mon 07:38:08 PM 33.2436 -83.0850 267° West 345 397 20,000  Level Atlanta Center
Mon 07:39:08 PM 33.2403 -83.1969 268° West 345 397 20,000  Level Atlanta Center
Mon 07:40:08 PM 33.2347 -83.3136 267° West 345 397 20,000 -200 Level Atlanta Center
Mon 07:41:08 PM 33.2333 -83.4131 269° West 345 397 19,600 -1,150 Descending Atlanta Center
Mon 07:42:08 PM 33.2297 -83.5247 268° West 343 395 17,700 -1,950 Descending Atlanta Center
Mon 07:43:08 PM 33.2258 -83.6317 268° West 332 382 15,700 -2,176 Descending Atlanta Center
Mon 07:43:39 PM 33.2167 -83.7000 261° West 315 362 14,400 -2,188 Descending Atlanta TRACON
Mon 07:44:33 PM 33.2167 -83.7833 270° West 309 356 12,600 -1,737 Descending Atlanta TRACON
Mon 07:45:33 PM 33.2500 -83.8667 296° West 287 330 11,100 -1,389 Descending Atlanta TRACON
Mon 07:46:08 PM 33.2767 -83.9219 300° West 286 329 10,400 -1,137 Descending Atlanta Center
Mon 07:47:08 PM 33.3078 -84.0039 294° West 291 335 9,300 -1,050 Descending Atlanta Center
Mon 07:48:08 PM 33.3497 -84.0611 311° West 237 273 8,300 -1,200 Descending Atlanta Center
Mon 07:49:08 PM 33.4122 -84.0314 22° Northeast 193 222 6,900 -1,400 Descending Atlanta Center
Mon 07:50:08 PM 33.4708 -84.0014 23° Northeast 212 244 5,500 -1,450 Descending Atlanta Center
Mon 07:51:08 PM 33.5311 -83.9764 19° North 227 261 4,000 -750 Descending Atlanta Center
Mon 07:52:08 PM 33.5856 -84.0164 329° Northwest 207 238 4,000  Level Atlanta Center
Mon 07:54:39 PM 33.6167 -84.1667 284° West 189 217 4,000 -28 Level Atlanta TRACON
Mon 07:55:39 PM 33.6167 -84.2333 270° West 195 224 3,900 -550 Descending Atlanta TRACON
Mon 07:56:39 PM 33.6167 -84.3000 270° West 192 221 2,900 -950 Descending Atlanta TRACON
Mon 07:57:39 PM 33.6167 -84.3500 270° West 170 196 2,000 -810 Descending Atlanta TRACON
Mon 07:58:45 PM 33.6167 -84.4167 270° West 143 165 1,200 -727 Descending Atlanta TRACON
Mon 08:00:00 PM 33.6333 -84.4167 286° West  Level FlightAware Approximate
Mon 08:07:00 PM 33.6367 -84.4279 286° West  Level Estimated

Login

Don't have an account? Register now (free) for customized features, flight alerts, and more!